Time;durP1;ratioP1;P1;durP2;ratioP2;P2;SDS_P1;SDS_P2;PMS_P1;PMS_P2;Temp;Humidity;BMP_temperature;BMP_pressure;BME280_temperature;BME280_humidity;BME280_pressure;Samples;Min_cycle;Max_cycle;Signal;HPM_P1;HPM_P2
2021/06/11 00:00:49;;;;;;;4.38;3.97;;;21.30;71.40;;;;;;5067399;28;20063;-83
2021/06/11 00:03:16;;;;;;;4.50;4.10;;;21.20;71.30;;;;;;5049363;28;20483;-87
2021/06/11 00:05:42;;;;;;;4.43;4.03;;;21.20;71.30;;;;;;5066846;28;20074;-83
2021/06/11 00:08:08;;;;;;;4.18;3.72;;;21.20;71.40;;;;;;5066450;28;20036;-82
2021/06/11 00:10:36;;;;;;;4.40;4.10;;;21.20;71.40;;;;;;5048831;28;20035;-87
2021/06/11 00:13:03;;;;;;;6.30;4.05;;;21.20;71.50;;;;;;5067447;28;20627;-85
2021/06/11 00:15:30;;;;;;;4.80;3.97;;;21.20;71.60;;;;;;5066823;28;20056;-83
2021/06/11 00:17:56;;;;;;;3.92;3.55;;;21.20;71.70;;;;;;5048667;28;20028;-85
2021/06/11 00:20:22;;;;;;;4.00;3.70;;;21.10;71.60;;;;;;5066789;28;20112;-82
2021/06/11 00:22:49;;;;;;;4.50;4.10;;;21.10;71.60;;;;;;5067209;28;20033;-85
2021/06/11 00:25:22;;;;;;;4.55;4.15;;;21.10;71.60;;;;;;5067057;28;20086;-83
2021/06/11 00:27:49;;;;;;;4.18;3.78;;;21.10;71.90;;;;;;5049014;28;20036;-84
2021/06/11 00:30:17;;;;;;;4.43;3.85;;;21.10;71.80;;;;;;5070823;28;20029;-84
2021/06/11 00:32:43;;;;;;;4.03;3.63;;;21.10;71.90;;;;;;5071406;28;20036;-82
2021/06/11 00:35:10;;;;;;;4.00;3.70;;;21.10;71.90;;;;;;5071354;28;20114;-85
2021/06/11 00:37:36;;;;;;;4.82;3.70;;;21.00;71.80;;;;;;5070713;28;20036;-83
2021/06/11 00:40:05;;;;;;;4.13;3.72;;;21.00;71.80;;;;;;5070890;28;20055;-83
2021/06/11 00:42:32;;;;;;;3.70;3.40;;;21.00;72.00;;;;;;5053729;28;20446;-85
2021/06/11 00:44:59;;;;;;;4.20;3.80;;;21.00;72.00;;;;;;5071939;28;20029;-91
2021/06/11 00:47:25;;;;;;;4.00;3.60;;;21.00;72.10;;;;;;5070708;28;20048;-83
2021/06/11 00:49:51;;;;;;;4.00;3.70;;;21.00;72.10;;;;;;5071285;28;20078;-88
2021/06/11 00:52:17;;;;;;;3.90;3.60;;;20.90;71.90;;;;;;5071855;28;20131;-84
2021/06/11 00:54:44;;;;;;;4.20;3.80;;;20.90;72.00;;;;;;5070628;28;20086;-83
2021/06/11 00:57:12;;;;;;;4.28;3.88;;;20.90;72.20;;;;;;5070597;28;20577;-85
2021/06/11 00:59:43;;;;;;;3.78;3.47;;;20.90;72.20;;;;;;5052818;28;20021;-83
2021/06/11 01:02:13;;;;;;;4.28;3.88;;;20.90;72.30;;;;;;5070637;28;20507;-82
2021/06/11 01:04:39;;;;;;;4.90;3.92;;;20.90;72.40;;;;;;5048496;28;20083;-82
2021/06/11 01:07:06;;;;;;;4.07;3.42;;;20.80;72.20;;;;;;5050383;28;20029;-83
2021/06/11 01:09:37;;;;;;;4.25;3.70;;;20.80;72.30;;;;;;5048551;28;20029;-83
2021/06/11 01:12:05;;;;;;;5.18;3.88;;;20.80;72.40;;;;;;5048810;28;20040;-82
2021/06/11 01:14:32;;;;;;;3.90;3.60;;;20.80;72.40;;;;;;5032070;28;20116;-82
2021/06/11 01:16:58;;;;;;;4.00;3.60;;;20.80;72.40;;;;;;5050057;28;20033;-83
2021/06/11 01:19:45;;;;;;;4.05;3.67;;;20.80;72.50;;;;;;5062678;28;20029;-86
2021/06/11 01:22:31;;;;;;;5.35;4.18;;;20.80;72.60;;;;;;5052567;28;20056;-83
2021/06/11 01:25:00;;;;;;;4.18;3.65;;;20.80;72.70;;;;;;5070420;28;20039;-86
2021/06/11 01:27:29;;;;;;;4.25;3.88;;;20.70;72.50;;;;;;5070199;28;20035;-84
2021/06/11 01:30:03;;;;;;;4.28;3.88;;;20.70;72.50;;;;;;5035460;28;20032;-85
2021/06/11 01:32:32;;;;;;;4.30;3.90;;;20.70;72.50;;;;;;5051335;28;20079;-84
2021/06/11 01:35:02;;;;;;;4.07;3.65;;;20.70;72.60;;;;;;5050973;28;20071;-84
2021/06/11 01:37:32;;;;;;;4.55;4.15;;;20.70;72.60;;;;;;5049743;28;20606;-83
2021/06/11 01:40:04;;;;;;;3.92;3.58;;;20.70;72.70;;;;;;5067537;28;20032;-84
2021/06/11 01:42:36;;;;;;;4.22;3.83;;;20.70;73.30;;;;;;5069649;28;20630;-86
2021/06/11 01:45:07;;;;;;;3.70;3.40;;;20.60;72.60;;;;;;5052839;28;20050;-83
2021/06/11 01:47:37;;;;;;;3.75;3.40;;;20.70;72.80;;;;;;5053506;28;20442;-84
2021/06/11 01:50:06;;;;;;;4.53;3.35;;;20.60;72.60;;;;;;5073645;28;20038;-84
2021/06/11 01:52:32;;;;;;;4.32;3.92;;;20.60;72.60;;;;;;5073391;28;20051;-84
2021/06/11 01:55:00;;;;;;;4.38;3.97;;;20.60;72.70;;;;;;5074162;28;20055;-83
2021/06/11 01:57:27;;;;;;;4.25;3.78;;;20.60;72.80;;;;;;5073816;28;20024;-85
2021/06/11 01:59:55;;;;;;;4.30;4.00;;;20.50;72.60;;;;;;5073668;28;20039;-85
2021/06/11 02:02:21;;;;;;;4.85;4.45;;;20.60;72.90;;;;;;5055947;28;20522;-86
2021/06/11 02:04:47;;;;;;;4.40;4.00;;;20.60;73.00;;;;;;5073582;28;20059;-84
2021/06/11 02:07:14;;;;;;;4.28;3.67;;;20.60;73.00;;;;;;5073801;28;20059;-85
2021/06/11 02:09:42;;;;;;;4.50;4.10;;;20.50;72.90;;;;;;5073463;28;20043;-86
2021/06/11 02:12:09;;;;;;;4.38;3.65;;;20.50;72.90;;;;;;5072580;28;20044;-85
2021/06/11 02:14:36;;;;;;;4.82;4.40;;;20.50;73.00;;;;;;5074356;28;20029;-88
2021/06/11 02:17:08;;;;;;;4.10;3.65;;;20.50;73.00;;;;;;5073639;28;20070;-86
2021/06/11 02:19:35;;;;;;;5.22;3.80;;;20.50;73.10;;;;;;5073747;28;20027;-86
2021/06/11 02:22:02;;;;;;;4.60;4.20;;;20.40;72.90;;;;;;5073727;28;20086;-83
2021/06/11 02:24:29;;;;;;;4.20;3.90;;;20.50;73.20;;;;;;5073088;28;20025;-86
2021/06/11 02:26:55;;;;;;;4.28;3.88;;;20.50;73.20;;;;;;5073082;28;20115;-86
2021/06/11 02:29:21;;;;;;;4.32;3.90;;;20.40;73.00;;;;;;5073719;28;20379;-84
2021/06/11 02:31:47;;;;;;;3.90;3.60;;;20.40;73.10;;;;;;5073014;28;20066;-85
2021/06/11 02:34:13;;;;;;;4.03;3.72;;;20.40;73.10;;;;;;5073162;28;20032;-85
2021/06/11 02:36:39;;;;;;;4.10;3.63;;;20.40;73.10;;;;;;5073622;28;20032;-87
2021/06/11 02:39:05;;;;;;;5.88;3.70;;;20.40;73.20;;;;;;5073008;28;20025;-85
2021/06/11 02:41:39;;;;;;;4.20;3.90;;;20.30;73.00;;;;;;5073059;28;20028;-83
2021/06/11 02:44:06;;;;;;;;;;;20.40;73.30;;;;;;5056073;28;20036;-88
2021/06/11 02:46:49;;;;;;;4.35;3.95;;;20.30;72.80;;;;;;5055429;28;19930;-85
2021/06/11 02:49:27;;;;;;;3.97;3.67;;;20.30;72.90;;;;;;5072442;28;20582;-86
2021/06/11 02:51:57;;;;;;;4.60;4.13;;;20.30;73.00;;;;;;5071977;28;20134;-85
2021/06/11 02:54:28;;;;;;;4.30;3.90;;;20.30;73.00;;;;;;5072734;28;20035;-81
2021/06/11 02:56:59;;;;;;;4.32;3.92;;;20.30;73.10;;;;;;5072952;28;20032;-85
2021/06/11 02:59:33;;;;;;;3.97;3.67;;;20.30;73.20;;;;;;5074475;28;20081;-82
2021/06/11 03:02:10;;;;;;;4.38;3.50;;;20.20;73.20;;;;;;5072454;28;20031;-85
2021/06/11 03:04:40;;;;;;;4.05;3.65;;;20.30;73.40;;;;;;5054497;28;20037;-85
2021/06/11 03:07:08;;;;;;;4.22;3.85;;;20.20;73.20;;;;;;5071304;28;20627;-83
2021/06/11 03:09:36;;;;;;;4.53;3.67;;;20.20;73.40;;;;;;5054414;28;20068;-84
2021/06/11 03:12:04;;;;;;;4.22;3.92;;;20.20;73.20;;;;;;5072118;28;20037;-84
2021/06/11 03:14:31;;;;;;;3.92;3.63;;;20.20;73.30;;;;;;5071797;28;20115;-84
2021/06/11 03:17:01;;;;;;;4.25;3.90;;;20.20;73.40;;;;;;5055189;28;20071;-82
2021/06/11 03:19:34;;;;;;;4.85;4.45;;;20.20;73.40;;;;;;5067928;28;20048;-86
2021/06/11 03:22:07;;;;;;;4.00;3.60;;;20.10;73.30;;;;;;5054637;28;20032;-87
2021/06/11 03:24:40;;;;;;;4.38;4.03;;;20.20;73.40;;;;;;5054309;28;20056;-87
2021/06/11 03:27:15;;;;;;;4.78;4.10;;;20.20;73.40;;;;;;5053481;28;20116;-87
2021/06/11 03:30:09;;;;;;;4.80;4.38;;;20.10;73.30;;;;;;5052665;28;20125;-85
2021/06/11 03:32:41;;;;;;;;;;;20.20;73.60;;;;;;5051705;28;20067;-87
2021/06/11 03:35:14;;;;;;;4.53;3.70;;;20.10;73.00;;;;;;5051704;28;19908;-85
2021/06/11 03:37:40;;;;;;;4.47;3.83;;;20.10;73.10;;;;;;5051255;28;20040;-86
2021/06/11 03:40:11;;;;;;;4.57;4.15;;;20.10;73.10;;;;;;5052776;28;20273;-85
2021/06/11 03:42:38;;;;;;;3.58;3.28;;;20.10;73.80;;;;;;5052216;28;20040;-86
2021/06/11 03:45:05;;;;;;;4.25;3.88;;;20.10;73.30;;;;;;5052329;28;20580;-86
2021/06/11 03:47:34;;;;;;;4.57;4.13;;;20.10;73.40;;;;;;5051336;28;20051;-86
2021/06/11 03:50:03;;;;;;;4.28;3.83;;;20.10;73.40;;;;;;5052333;28;20395;-84
2021/06/11 03:52:35;;;;;;;4.43;4.03;;;20.00;73.30;;;;;;5051960;28;20040;-86
2021/06/11 03:55:12;;;;;;;5.47;4.30;;;20.00;73.30;;;;;;5051354;28;20029;-86
2021/06/11 03:57:39;;;;;;;4.80;4.38;;;20.00;73.50;;;;;;5051400;28;20035;-86
2021/06/11 04:00:07;;;;;;;3.97;3.58;;;20.00;73.40;;;;;;5051417;28;20039;-87
2021/06/11 04:02:36;;;;;;;3.97;3.58;;;20.00;73.40;;;;;;5052345;28;20071;-91
2021/06/11 04:05:03;;;;;;;3.97;3.63;;;20.00;73.50;;;;;;5053241;28;20033;-86
2021/06/11 04:07:37;;;;;;;4.20;3.88;;;20.00;73.60;;;;;;5053844;28;20021;-88
2021/06/11 04:10:07;;;;;;;3.80;3.50;;;20.00;73.70;;;;;;5054512;28;20029;-86
2021/06/11 04:12:39;;;;;;;4.13;3.72;;;20.00;73.70;;;;;;5053117;28;20040;-86
2021/06/11 04:15:06;;;;;;;3.30;3.05;;;20.00;73.70;;;;;;5053083;28;20029;-87
2021/06/11 04:17:39;;;;;;;3.80;3.45;;;20.00;73.70;;;;;;5053579;28;20492;-88
2021/06/11 04:20:11;;;;;;;4.07;3.25;;;19.90;73.60;;;;;;5064013;28;20035;-87
2021/06/11 04:22:41;;;;;;;5.00;3.75;;;19.90;73.50;;;;;;5072586;28;20029;-88
2021/06/11 04:25:11;;;;;;;4.10;3.80;;;19.90;73.60;;;;;;5053547;28;20028;-86
2021/06/11 04:27:39;;;;;;;5.05;3.92;;;19.90;73.60;;;;;;5053945;28;20043;-86
2021/06/11 04:30:05;;;;;;;4.22;3.88;;;19.90;73.60;;;;;;5072231;28;20033;-87
2021/06/11 04:32:31;;;;;;;4.35;3.75;;;19.90;73.60;;;;;;5071498;28;20044;-84
2021/06/11 04:34:57;;;;;;;4.30;3.90;;;19.90;73.60;;;;;;5071412;28;20048;-83
2021/06/11 04:37:23;;;;;;;4.53;4.07;;;19.90;73.60;;;;;;5053214;28;20091;-84
2021/06/11 04:39:50;;;;;;;4.72;3.50;;;19.90;73.60;;;;;;5053304;28;20056;-83
2021/06/11 04:42:16;;;;;;;7.40;3.88;;;19.90;73.70;;;;;;5070951;28;20033;-84
2021/06/11 04:44:42;;;;;;;3.92;3.63;;;19.90;73.70;;;;;;5053063;28;20525;-83
2021/06/11 04:47:08;;;;;;;5.55;4.00;;;19.90;73.70;;;;;;5051244;28;20052;-83
2021/06/11 04:49:34;;;;;;;4.50;4.10;;;19.90;73.70;;;;;;5029922;28;20033;-83
2021/06/11 04:52:00;;;;;;;4.70;3.92;;;19.90;73.70;;;;;;5047824;28;20484;-84
2021/06/11 04:54:26;;;;;;;3.95;3.65;;;19.90;73.70;;;;;;5047402;28;20025;-83
2021/06/11 04:56:52;;;;;;;4.25;3.85;;;19.90;73.70;;;;;;5047830;28;20162;-84
2021/06/11 04:59:18;;;;;;;5.07;3.88;;;19.90;73.70;;;;;;5064695;28;20476;-85
2021/06/11 05:01:47;;;;;;;3.90;3.40;;;19.90;73.70;;;;;;5059848;28;20025;-85
2021/06/11 05:04:13;;;;;;;4.20;3.85;;;19.90;73.70;;;;;;5050894;28;20025;-85
2021/06/11 05:06:40;;;;;;;4.13;3.75;;;19.90;73.70;;;;;;5046532;28;20182;-83
2021/06/11 05:09:06;;;;;;;6.32;4.50;;;19.90;73.80;;;;;;5043578;28;20035;-85
2021/06/11 05:11:32;;;;;;;4.80;4.15;;;19.90;73.70;;;;;;5048315;28;20040;-83
2021/06/11 05:13:58;;;;;;;4.65;4.25;;;19.90;73.70;;;;;;5045968;28;20032;-85
2021/06/11 05:16:24;;;;;;;4.45;4.05;;;19.90;73.70;;;;;;5048411;28;20029;-83
2021/06/11 05:18:50;;;;;;;6.38;4.65;;;19.90;73.70;;;;;;5062598;28;20035;-85
2021/06/11 05:21:16;;;;;;;6.28;4.20;;;19.90;73.70;;;;;;5038543;28;20033;-81
2021/06/11 05:23:42;;;;;;;4.82;4.13;;;19.90;73.70;;;;;;5052448;28;20082;-84
2021/06/11 05:26:08;;;;;;;6.00;4.45;;;19.90;73.70;;;;;;5052860;28;20032;-84
2021/06/11 05:28:34;;;;;;;4.70;3.90;;;19.90;73.70;;;;;;5069359;28;20033;-82
2021/06/11 05:31:00;;;;;;;4.95;4.47;;;19.90;73.70;;;;;;5034684;28;20038;-85
2021/06/11 05:33:26;;;;;;;4.20;3.65;;;19.90;73.70;;;;;;5067630;28;20036;-86
2021/06/11 05:35:52;;;;;;;4.13;3.75;;;19.90;73.70;;;;;;5060893;28;20021;-83
2021/06/11 05:38:19;;;;;;;9.55;4.82;;;19.90;73.80;;;;;;5048933;28;20032;-86
2021/06/11 05:40:45;;;;;;;5.30;4.35;;;19.90;73.80;;;;;;5048944;28;20059;-85
2021/06/11 05:43:11;;;;;;;5.28;4.75;;;19.90;73.90;;;;;;5059262;28;20076;-85
2021/06/11 05:45:38;;;;;;;5.78;4.68;;;19.90;73.90;;;;;;5052307;28;20043;-86
2021/06/11 05:48:05;;;;;;;9.75;5.40;;;19.90;73.90;;;;;;5068916;28;20091;-85
2021/06/11 05:50:32;;;;;;;6.47;5.10;;;20.00;74.10;;;;;;5051708;28;20028;-87
2021/06/11 05:52:58;;;;;;;5.03;4.43;;;20.00;74.10;;;;;;5052038;28;20059;-91
2021/06/11 05:55:25;;;;;;;9.55;6.80;;;20.00;74.10;;;;;;5055933;28;20076;-92
2021/06/11 05:57:51;;;;;;;9.35;7.40;;;20.00;74.00;;;;;;5053438;28;20089;-93
2021/06/11 06:00:18;;;;;;;9.82;7.32;;;20.00;73.80;;;;;;5066004;28;20032;-86
2021/06/11 06:02:44;;;;;;;9.95;6.93;;;20.00;74.10;;;;;;5069787;28;20033;-87
2021/06/11 06:05:11;;;;;;;8.27;6.25;;;20.10;74.60;;;;;;5053389;28;20044;-87
2021/06/11 06:07:38;;;;;;;10.80;6.20;;;20.20;75.10;;;;;;5036136;28;20039;-84
2021/06/11 06:10:05;;;;;;;9.07;6.72;;;20.20;75.30;;;;;;5069717;28;20116;-90
2021/06/11 06:12:31;;;;;;;11.13;7.07;;;20.30;75.70;;;;;;5048969;28;20048;-86
2021/06/11 06:14:58;;;;;;;12.90;6.88;;;20.30;75.80;;;;;;5050835;28;20029;-88
2021/06/11 06:17:31;;;;;;;8.45;6.50;;;20.40;76.10;;;;;;5051407;28;20033;-90
2021/06/11 06:19:57;;;;;;;9.23;6.38;;;20.40;76.30;;;;;;5053523;28;20063;-88
2021/06/11 06:22:22;;;;;;;7.85;6.05;;;20.50;77.00;;;;;;5053985;28;20063;-94
2021/06/11 06:24:48;;;;;;;10.82;6.35;;;20.50;76.50;;;;;;5056261;28;20024;-89
2021/06/11 06:27:15;;;;;;;7.32;6.22;;;20.60;76.70;;;;;;5053099;28;20033;-88
2021/06/11 06:29:41;;;;;;;8.82;6.15;;;20.60;76.60;;;;;;5055752;28;20683;-93
2021/06/11 06:32:07;;;;;;;8.05;6.43;;;20.70;76.80;;;;;;5038778;28;20143;-91
2021/06/11 06:34:33;;;;;;;6.45;5.85;;;20.80;76.90;;;;;;5055464;28;20104;-87
2021/06/11 06:36:59;;;;;;;7.90;6.20;;;20.80;76.80;;;;;;5056371;28;20047;-91
2021/06/11 06:39:27;;;;;;;8.23;6.20;;;20.90;76.90;;;;;;5036638;28;20046;-91
2021/06/11 06:41:53;;;;;;;6.40;5.63;;;20.90;76.70;;;;;;5053743;28;20040;-91
2021/06/11 06:44:19;;;;;;;7.43;5.72;;;21.00;76.70;;;;;;5038170;28;20513;-90
2021/06/11 06:46:45;;;;;;;6.32;5.72;;;21.00;76.60;;;;;;5053513;28;20051;-93
2021/06/11 06:49:11;;;;;;;6.72;5.53;;;21.10;76.70;;;;;;5053680;28;20071;-90
2021/06/11 06:51:37;;;;;;;8.23;5.82;;;21.10;76.50;;;;;;5054214;28;20044;-90
2021/06/11 06:54:04;;;;;;;5.18;4.68;;;21.20;76.60;;;;;;5050718;28;20035;-90
2021/06/11 06:56:30;;;;;;;7.57;5.30;;;21.20;76.40;;;;;;5052827;28;20101;-91
2021/06/11 06:58:56;;;;;;;5.18;4.68;;;21.30;76.50;;;;;;5053720;28;20040;-88
2021/06/11 07:01:25;;;;;;;6.45;5.38;;;21.30;76.40;;;;;;5053180;28;20284;-90
2021/06/11 07:03:56;;;;;;;5.80;5.15;;;21.30;76.30;;;;;;5054586;28;20039;-90
2021/06/11 07:06:26;;;;;;;6.22;5.18;;;21.40;76.30;;;;;;5053881;28;20033;-91
2021/06/11 07:08:52;;;;;;;6.00;4.72;;;21.40;76.10;;;;;;5044845;28;20032;-90
2021/06/11 07:11:19;;;;;;;5.95;4.57;;;21.50;76.10;;;;;;5037409;28;20480;-88
2021/06/11 07:13:45;;;;;;;6.40;4.55;;;21.50;75.90;;;;;;5051133;28;20028;-87
2021/06/11 07:16:11;;;;;;;5.93;4.45;;;21.50;75.80;;;;;;5051019;28;20029;-91
2021/06/11 07:18:38;;;;;;;6.38;4.90;;;21.60;75.80;;;;;;5054656;28;20032;-89
2021/06/11 07:21:05;;;;;;;9.32;5.22;;;21.70;75.90;;;;;;5037513;28;20024;-91
2021/06/11 07:23:33;;;;;;;5.63;4.60;;;21.70;75.80;;;;;;5049880;28;20346;-90
2021/06/11 07:26:06;;;;;;;7.93;5.30;;;21.70;75.70;;;;;;5036846;28;20083;-91
2021/06/11 07:28:34;;;;;;;6.38;4.95;;;21.70;75.60;;;;;;5051672;28;20048;-91
2021/06/11 07:31:01;;;;;;;5.65;4.70;;;21.70;75.50;;;;;;5034558;28;20515;-92
2021/06/11 07:33:27;;;;;;;5.80;4.75;;;21.70;75.50;;;;;;5050430;28;20052;-90
2021/06/11 07:35:55;;;;;;;7.47;4.47;;;21.70;75.50;;;;;;5049780;28;20033;-91
2021/06/11 07:38:21;;;;;;;4.70;4.30;;;21.70;75.40;;;;;;5053967;28;20107;-90
2021/06/11 07:40:51;;;;;;;4.55;4.15;;;21.70;75.40;;;;;;5053537;28;20029;-90
2021/06/11 07:43:17;;;;;;;5.50;4.00;;;21.70;75.30;;;;;;5052643;28;20032;-90
2021/06/11 07:45:43;;;;;;;5.72;4.75;;;21.70;75.30;;;;;;5053760;28;20036;-91
2021/06/11 07:48:09;;;;;;;5.50;4.40;;;21.70;75.30;;;;;;5053770;28;20052;-91
2021/06/11 07:50:35;;;;;;;6.20;4.80;;;21.80;75.50;;;;;;5054703;28;20051;-90
2021/06/11 07:53:01;;;;;;;4.50;4.10;;;21.80;75.50;;;;;;5048233;28;20516;-93
2021/06/11 07:55:27;;;;;;;5.45;4.35;;;21.80;75.40;;;;;;5054324;28;20029;-90
2021/06/11 07:57:54;;;;;;;5.53;4.15;;;21.90;75.50;;;;;;5054121;28;20059;-91
2021/06/11 08:00:20;;;;;;;4.05;3.65;;;22.00;75.60;;;;;;5054079;28;20115;-94
2021/06/11 08:02:46;;;;;;;4.90;4.10;;;22.00;75.50;;;;;;5048118;28;20061;-93
2021/06/11 08:05:12;;;;;;;8.05;4.43;;;22.00;75.40;;;;;;5040087;28;20036;-88
2021/06/11 08:07:39;;;;;;;5.00;3.78;;;22.10;75.40;;;;;;5052413;28;20025;-85
2021/06/11 08:10:06;;;;;;;3.80;3.45;;;22.20;75.40;;;;;;5046787;28;20101;-86
2021/06/11 08:12:32;;;;;;;4.28;3.83;;;22.30;75.50;;;;;;5030930;28;20048;-88
2021/06/11 08:14:58;;;;;;;3.00;2.70;;;22.30;75.30;;;;;;5031655;28;20021;-87
2021/06/11 08:17:25;;;;;;;5.05;3.42;;;22.50;75.60;;;;;;5014951;28;20503;-89
2021/06/11 08:19:51;;;;;;;4.28;3.25;;;22.50;75.30;;;;;;5052604;28;20059;-89
2021/06/11 08:22:18;;;;;;;3.63;3.33;;;22.60;75.40;;;;;;5052925;28;20025;-88
2021/06/11 08:24:45;;;;;;;4.18;3.13;;;22.70;75.50;;;;;;5069104;28;20028;-90
2021/06/11 08:27:11;;;;;;;3.08;2.78;;;23.00;75.80;;;;;;5056146;28;20031;-92
2021/06/11 08:29:37;;;;;;;3.97;3.53;;;23.40;75.80;;;;;;5039593;28;20029;-88
2021/06/11 08:32:03;;;;;;;4.18;3.10;;;23.60;75.60;;;;;;5035372;28;20075;-87
2021/06/11 08:34:32;;;;;;;3.38;2.85;;;23.80;75.50;;;;;;5050423;28;20107;-86
2021/06/11 08:36:58;;;;;;;3.20;2.90;;;23.90;75.40;;;;;;5049411;28;20040;-86
2021/06/11 08:39:24;;;;;;;3.95;3.10;;;24.00;75.40;;;;;;5069077;28;20025;-87
2021/06/11 08:41:50;;;;;;;3.00;2.70;;;24.10;75.50;;;;;;5050342;28;20484;-85
2021/06/11 08:44:19;;;;;;;3.58;2.83;;;24.20;75.50;;;;;;5050388;28;20033;-88
2021/06/11 08:46:47;;;;;;;2.90;2.60;;;24.30;75.50;;;;;;5049795;28;20097;-87
2021/06/11 08:49:15;;;;;;;4.97;2.78;;;24.40;75.60;;;;;;5033351;28;20365;-86
2021/06/11 08:51:41;;;;;;;3.10;2.80;;;24.50;75.60;;;;;;5018029;28;20052;-90
2021/06/11 08:54:07;;;;;;;2.72;2.53;;;24.60;75.50;;;;;;5065366;28;20028;-91
2021/06/11 08:56:34;;;;;;;2.95;2.50;;;24.70;76.10;;;;;;5036932;28;20036;-87
2021/06/11 08:59:00;;;;;;;3.05;2.40;;;24.80;75.70;;;;;;5036660;28;20508;-89
2021/06/11 09:01:25;;;;;;;2.75;2.33;;;25.00;75.70;;;;;;5019726;28;20035;-90
2021/06/11 09:03:56;;;;;;;2.97;2.67;;;25.00;75.40;;;;;;5035037;28;20490;-93
2021/06/11 09:06:23;;;;;;;2.50;2.30;;;25.10;75.20;;;;;;5057146;28;20032;-92
2021/06/11 09:08:58;;;;;;;2.75;1.98;;;25.10;75.00;;;;;;5041165;28;20024;-91
2021/06/11 09:11:28;;;;;;;2.78;2.45;;;25.20;74.80;;;;;;5056715;28;20044;-92
2021/06/11 09:14:12;;;;;;;2.75;2.17;;;25.20;74.60;;;;;;5039771;28;20039;-92
2021/06/11 09:16:51;;;;;;;2.00;1.80;;;25.20;74.70;;;;;;5056108;28;20056;-89
2021/06/11 09:19:23;;;;;;;2.65;2.17;;;25.30;74.60;;;;;;5035114;28;20071;-90
2021/06/11 09:21:58;;;;;;;2.25;1.90;;;25.30;74.70;;;;;;5057347;28;20017;-87
2021/06/11 09:26:58;;;;;;;2.35;2.00;;;25.20;74.50;;;;;;5055926;28;20031;-91
2021/06/11 09:29:33;;;;;;;2.00;1.80;;;25.30;74.50;;;;;;5055640;28;20040;-90
2021/06/11 09:32:22;;;;;;;2.67;2.47;;;25.30;74.50;;;;;;5037546;28;20484;-88
2021/06/11 09:35:05;;;;;;;4.68;1.58;;;25.40;74.60;;;;;;5043570;28;20029;-89
2021/06/11 09:37:34;;;;;;;2.58;1.50;;;25.50;72.30;;;;;;5054415;28;20032;-85
2021/06/11 09:40:11;;;;;;;2.35;1.65;;;25.50;71.70;;;;;;5053053;28;20033;-88
2021/06/11 09:42:41;;;;;;;1.60;1.50;;;25.50;71.20;;;;;;5070340;28;20059;-88
2021/06/11 09:45:11;;;;;;;1.50;1.40;;;25.70;71.10;;;;;;5038902;28;20032;-90
2021/06/11 09:47:37;;;;;;;4.03;1.60;;;25.90;71.30;;;;;;5050829;28;20067;-87
2021/06/11 09:50:06;;;;;;;1.30;1.20;;;26.20;70.60;;;;;;5066570;28;20476;-85
2021/06/11 09:52:36;;;;;;;2.63;1.55;;;26.50;70.10;;;;;;5065634;28;20044;-87
2021/06/11 09:55:21;;;;;;;1.55;1.30;;;26.80;69.80;;;;;;5049596;28;20033;-88
2021/06/11 09:57:47;;;;;;;1.70;1.38;;;27.00;69.40;;;;;;5050097;28;20366;-84
2021/06/11 10:00:13;;;;;;;1.63;1.35;;;27.20;69.20;;;;;;5049609;28;20075;-87
2021/06/11 10:02:39;;;;;;;1.50;1.40;;;27.50;69.00;;;;;;5049789;28;20096;-87
2021/06/11 10:05:05;;;;;;;1.98;1.30;;;27.70;68.80;;;;;;5050283;28;20096;-90
2021/06/11 10:07:34;;;;;;;1.60;1.50;;;27.80;68.70;;;;;;5068123;28;20541;-91
2021/06/11 10:10:00;;;;;;;1.80;1.25;;;27.90;68.70;;;;;;5053362;28;20468;-90
2021/06/11 10:12:27;;;;;;;1.77;1.40;;;27.90;68.70;;;;;;5035342;28;20067;-88
2021/06/11 10:14:56;;;;;;;1.75;1.35;;;28.10;68.60;;;;;;5051424;28;20032;-88
2021/06/11 10:17:22;;;;;;;1.77;1.23;;;28.20;68.40;;;;;;5048592;28;20029;-85
2021/06/11 10:19:48;;;;;;;1.75;1.15;;;28.50;68.10;;;;;;5050837;28;20085;-89
2021/06/11 10:22:14;;;;;;;2.25;1.20;;;28.70;67.50;;;;;;5049447;28;20029;-91
2021/06/11 10:24:40;;;;;;;1.58;0.93;;;28.90;67.10;;;;;;5051143;28;20068;-91
2021/06/11 10:27:07;;;;;;;1.65;1.20;;;29.00;66.80;;;;;;5051913;28;20037;-90
2021/06/11 10:29:34;;;;;;;1.70;1.00;;;29.20;66.60;;;;;;5051845;28;20044;-91
2021/06/11 10:32:02;;;;;;;2.75;1.30;;;29.40;66.40;;;;;;5050234;28;20047;-90
2021/06/11 10:34:51;;;;;;;1.27;1.10;;;29.60;66.00;;;;;;5050802;28;20029;-89
2021/06/11 10:37:42;;;;;;;1.08;0.98;;;29.60;66.10;;;;;;5050110;28;20120;-86
2021/06/11 10:40:32;;;;;;;2.60;1.15;;;29.60;66.40;;;;;;5015543;28;20059;-90
2021/06/11 10:43:24;;;;;;;1.23;0.90;;;29.50;66.40;;;;;;5018789;28;20112;-93
2021/06/11 10:45:52;;;;;;;1.77;1.20;;;29.50;66.40;;;;;;5026901;28;20370;-91
2021/06/11 10:48:19;;;;;;;1.10;1.00;;;29.40;66.50;;;;;;5028902;28;20063;-90
2021/06/11 10:50:46;;;;;;;1.08;0.90;;;29.30;66.60;;;;;;5040261;28;20613;-91
2021/06/11 10:53:29;;;;;;;0.93;0.82;;;29.40;66.70;;;;;;5067615;28;20047;-91
2021/06/11 10:56:15;;;;;;;1.10;0.98;;;29.50;66.50;;;;;;5050940;28;20380;-91
2021/06/11 10:58:44;;;;;;;2.15;1.10;;;29.70;66.30;;;;;;5033379;28;20032;-92
2021/06/11 11:01:29;;;;;;;1.60;1.15;;;29.80;66.00;;;;;;5060142;28;20036;-94
2021/06/11 11:04:32;;;;;;;2.75;1.08;;;30.00;65.90;;;;;;5050532;28;20424;-89
2021/06/11 11:07:24;;;;;;;5.47;1.23;;;30.00;65.80;;;;;;5035965;28;20029;-89
2021/06/11 11:09:59;;;;;;;1.42;0.90;;;30.00;65.50;;;;;;5029432;28;20032;-90
2021/06/11 11:12:31;;;;;;;1.63;1.35;;;30.10;65.50;;;;;;5030259;28;20054;-89
2021/06/11 11:15:00;;;;;;;1.13;1.00;;;30.20;65.30;;;;;;5030407;28;20079;-90
2021/06/11 11:17:27;;;;;;;1.52;1.15;;;30.30;65.20;;;;;;5031064;28;20061;-87
2021/06/11 11:19:53;;;;;;;1.70;1.10;;;30.40;65.10;;;;;;5042028;28;20025;-92
2021/06/11 11:22:37;;;;;;;0.95;0.90;;;30.50;65.00;;;;;;5034480;28;20051;-88
2021/06/11 11:25:15;;;;;;;1.00;0.90;;;30.60;64.80;;;;;;5050765;28;20039;-93
2021/06/11 11:27:53;;;;;;;2.35;1.10;;;30.80;64.60;;;;;;5052250;28;20032;-96
2021/06/11 11:30:22;;;;;;;1.45;1.00;;;30.90;64.60;;;;;;5051325;28;20086;-88
2021/06/11 11:32:49;;;;;;;1.20;0.90;;;30.90;64.50;;;;;;5051689;28;20037;-93
2021/06/11 11:35:17;;;;;;;1.08;0.95;;;30.90;64.40;;;;;;5051242;28;20340;-89
2021/06/11 11:37:45;;;;;;;1.55;0.77;;;31.00;64.40;;;;;;5048881;28;20033;-95
2021/06/11 11:40:11;;;;;;;1.88;1.08;;;31.10;64.20;;;;;;5050938;28;20029;-90
2021/06/11 11:42:37;;;;;;;1.67;0.80;;;31.30;64.00;;;;;;5051043;28;20040;-89
2021/06/11 11:45:05;;;;;;;2.80;1.02;;;31.40;63.60;;;;;;5050012;28;20732;-90
2021/06/11 11:47:31;;;;;;;3.65;1.20;;;31.60;63.60;;;;;;5052127;28;20136;-88
2021/06/11 11:49:57;;;;;;;1.48;1.00;;;31.70;63.30;;;;;;5050287;28;20138;-93
2021/06/11 11:52:23;;;;;;;1.60;1.00;;;31.90;63.20;;;;;;5050392;28;20607;-93
2021/06/11 11:54:49;;;;;;;2.15;1.10;;;32.00;62.90;;;;;;5051214;28;20024;-92
2021/06/11 11:57:15;;;;;;;1.50;0.90;;;32.10;63.20;;;;;;5032810;28;20095;-93
2021/06/11 11:59:41;;;;;;;0.85;0.70;;;32.20;62.50;;;;;;5050666;28;20100;-92
2021/06/11 12:02:09;;;;;;;0.98;0.90;;;32.20;62.60;;;;;;5050371;28;20566;-92
2021/06/11 12:04:35;;;;;;;1.33;1.20;;;32.20;62.40;;;;;;5014854;28;20036;-91
2021/06/11 12:07:01;;;;;;;1.02;0.93;;;32.20;62.50;;;;;;5030450;28;20033;-92
2021/06/11 12:09:27;;;;;;;1.23;0.98;;;32.20;62.40;;;;;;5047540;28;20052;-91
2021/06/11 12:11:53;;;;;;;1.35;1.20;;;32.10;62.40;;;;;;5031615;28;20064;-90
2021/06/11 12:14:19;;;;;;;1.17;1.00;;;32.10;62.60;;;;;;5049322;28;20108;-90
2021/06/11 12:16:45;;;;;;;3.03;1.13;;;32.10;62.70;;;;;;5048298;28;20025;-89
2021/06/11 12:19:11;;;;;;;1.42;0.93;;;32.10;63.10;;;;;;5057217;28;20033;-91
2021/06/11 12:21:37;;;;;;;0.93;0.90;;;32.00;63.10;;;;;;5049249;28;20033;-90
2021/06/11 12:24:04;;;;;;;1.58;0.93;;;32.00;63.30;;;;;;5049830;28;20435;-90
2021/06/11 12:26:30;;;;;;;1.27;0.85;;;32.00;63.50;;;;;;5036464;28;20103;-89
2021/06/11 12:28:56;;;;;;;2.30;0.95;;;31.90;63.50;;;;;;5046467;28;20582;-90
2021/06/11 12:31:22;;;;;;;1.30;0.90;;;31.80;63.60;;;;;;5056518;28;20487;-86
2021/06/11 12:33:48;;;;;;;1.17;0.90;;;31.70;63.80;;;;;;5062474;28;20117;-92
2021/06/11 12:36:15;;;;;;;1.45;0.80;;;31.60;64.10;;;;;;5039182;28;20037;-90
2021/06/11 12:38:41;;;;;;;1.48;1.10;;;31.60;64.30;;;;;;5046713;28;20036;-92
2021/06/11 12:41:09;;;;;;;1.17;1.08;;;31.50;64.50;;;;;;5058033;28;20032;-94
2021/06/11 12:46:24;;;;;;;0.85;0.70;;;31.40;64.80;;;;;;5060482;28;20131;-92
2021/06/11 12:48:50;;;;;;;1.25;1.00;;;31.50;64.90;;;;;;5059798;28;20032;-92
2021/06/11 12:51:17;;;;;;;1.67;1.10;;;31.50;65.00;;;;;;5059543;28;20032;-94
2021/06/11 12:53:44;;;;;;;1.45;0.90;;;31.60;64.60;;;;;;5058270;28;20137;-92
2021/06/11 12:56:10;;;;;;;1.08;0.73;;;31.70;64.50;;;;;;5059509;28;20115;-93
2021/06/11 12:58:36;;;;;;;0.98;0.90;;;31.80;64.30;;;;;;5059983;28;20032;-89
2021/06/11 13:01:03;;;;;;;1.90;1.02;;;31.90;64.00;;;;;;5077553;28;20024;-93